Time,TemperatureF,DewpointF,PressureIn,WindDirection,WindDirectionDegrees,WindSpeedMPH,WindSpeedGustMPH,Humidity,HourlyPrecipIn,Conditions,Clouds,dailyrainin,SoftwareType,DateUTC
2013-03-15 00:00:00,34.9,32.0,30.18,SSW,193,1.0,1.0,89,0.00,,,0.00,Wunderground v.1.15,2013-03-15 04:00:00,
2013-03-15 00:01:00,34.8,31.9,30.18,SSW,207,1.0,1.0,89,0.00,,,0.00,Wunderground v.1.15,2013-03-15 04:01:00,
2013-03-15 00:02:00,34.8,31.9,30.18,SSW,207,1.0,1.0,89,0.00,,,0.00,Wunderground v.1.15,2013-03-15 04:02:00,
2013-03-15 00:05:00,34.7,31.8,30.18,South,186,1.0,1.0,89,0.00,,,0.00,Wunderground v.1.15,2013-03-15 04:05:00,
2013-03-15 00:11:00,34.5,31.9,30.18,South,182,0.0,1.0,90,0.00,,,0.00,Wunderground v.1.15,2013-03-15 04:11:00,
2013-03-15 00:17:00,34.4,31.8,30.18,South,186,0.0,1.0,90,0.00,,,0.00,Wunderground v.1.15,2013-03-15 04:17:00,
2013-03-15 00:23:00,34.4,32.0,30.17,South,173,0.0,2.0,91,0.00,,,0.00,Wunderground v.1.15,2013-03-15 04:23:00,
2013-03-15 00:28:00,34.3,31.9,30.17,South,190,1.0,2.0,91,0.00,,,0.00,Wunderground v.1.15,2013-03-15 04:28:00,
2013-03-15 00:34:00,34.2,31.8,30.17,South,188,1.0,3.0,91,0.00,,,0.00,Wunderground v.1.15,2013-03-15 04:34:00,
2013-03-15 00:40:00,34.3,31.9,30.16,SSW,202,1.0,1.0,91,0.00,,,0.00,Wunderground v.1.15,2013-03-15 04:40:00,
2013-03-15 00:45:00,34.3,31.9,30.16,ESE,119,1.0,1.0,91,0.00,,,0.00,Wunderground v.1.15,2013-03-15 04:45:00,
2013-03-15 00:50:00,34.2,31.8,30.15,South,188,1.0,2.0,91,0.00,,,0.00,Wunderground v.1.15,2013-03-15 04:50:00,
2013-03-15 00:55:00,34.1,31.7,30.15,South,178,1.0,3.0,91,0.00,,,0.00,Wunderground v.1.15,2013-03-15 04:55:00,
2013-03-15 01:01:00,33.9,31.8,30.15,SSW,194,1.0,1.0,92,0.00,,,0.00,Wunderground v.1.15,2013-03-15 05:01:00,
2013-03-15 01:06:00,33.8,31.7,30.15,South,185,1.0,2.0,92,0.00,,,0.00,Wunderground v.1.15,2013-03-15 05:06:00,
2013-03-15 01:12:00,33.8,31.7,30.14,SE,144,1.0,1.0,92,0.00,,,0.00,Wunderground v.1.15,2013-03-15 05:12:00,
2013-03-15 01:17:00,33.7,31.6,30.14,South,180,1.0,2.0,92,0.00,,,0.00,Wunderground v.1.15,2013-03-15 05:17:00,
2013-03-15 01:22:00,33.6,31.5,30.14,South,188,0.0,1.0,92,0.00,,,0.00,Wunderground v.1.15,2013-03-15 05:22:00,
2013-03-15 01:27:00,33.5,31.4,30.14,SSW,209,1.0,2.0,92,0.00,,,0.00,Wunderground v.1.15,2013-03-15 05:27:00,
2013-03-15 01:32:00,33.5,31.4,30.14,South,184,1.0,1.0,92,0.00,,,0.00,Wunderground v.1.15,2013-03-15 05:32:00,
2013-03-15 01:37:00,33.4,31.6,30.14,SSW,192,1.0,3.0,93,0.00,,,0.00,Wunderground v.1.15,2013-03-15 05:37:00,
2013-03-15 01:43:00,33.4,31.6,30.14,South,172,1.0,2.0,93,0.00,,,0.00,Wunderground v.1.15,2013-03-15 05:43:00,
2013-03-15 01:49:00,33.3,31.5,30.13,SSW,194,0.0,2.0,93,0.00,,,0.00,Wunderground v.1.15,2013-03-15 05:49:00,
2013-03-15 01:55:00,33.2,31.4,30.13,South,188,0.0,0.0,93,0.00,,,0.00,Wunderground v.1.15,2013-03-15 05:55:00,
2013-03-15 02:01:00,33.2,31.4,30.13,South,170,0.0,0.0,93,0.00,,,0.00,Wunderground v.1.15,2013-03-15 06:01:00,
2013-03-15 02:06:00,33.1,31.6,30.13,South,170,0.0,1.0,94,0.00,,,0.00,Wunderground v.1.15,2013-03-15 06:06:00,
2013-03-15 02:12:00,33.0,31.5,30.13,South,170,0.0,0.0,94,0.00,,,0.00,Wunderground v.1.15,2013-03-15 06:12:00,
2013-03-15 02:18:00,32.8,31.0,30.13,South,170,0.0,0.0,93,0.00,,,0.00,Wunderground v.1.15,2013-03-15 06:18:00,
2013-03-15 02:23:00,32.7,31.2,30.13,South,170,0.0,0.0,94,0.00,,,0.00,Wunderground v.1.15,2013-03-15 06:23:00,
2013-03-15 02:29:00,32.6,31.1,30.13,South,170,0.0,0.0,94,0.00,,,0.00,Wunderground v.1.15,2013-03-15 06:29:00,
2013-03-15 02:35:00,32.4,30.9,30.13,South,170,0.0,0.0,94,0.00,,,0.00,Wunderground v.1.15,2013-03-15 06:35:00,
2013-03-15 02:41:00,32.4,30.9,30.13,South,170,0.0,0.0,94,0.00,,,0.00,Wunderground v.1.15,2013-03-15 06:41:00,
2013-03-15 02:47:00,32.2,30.7,30.12,South,170,0.0,0.0,94,0.00,,,0.00,Wunderground v.1.15,2013-03-15 06:47:00,
2013-03-15 02:52:00,32.1,30.6,30.12,South,170,0.0,0.0,94,0.00,,,0.00,Wunderground v.1.15,2013-03-15 06:52:00,
2013-03-15 02:58:00,32.0,30.5,30.12,South,170,0.0,0.0,94,0.00,,,0.00,Wunderground v.1.15,2013-03-15 06:58:00,
2013-03-15 03:04:00,31.9,30.4,30.12,South,170,0.0,0.0,94,0.00,,,0.00,Wunderground v.1.15,2013-03-15 07:04:00,
2013-03-15 03:09:00,31.8,30.3,30.12,South,170,0.0,0.0,94,0.00,,,0.00,Wunderground v.1.15,2013-03-15 07:09:00,
2013-03-15 03:14:00,31.7,30.2,30.11,South,170,0.0,0.0,94,0.00,,,0.00,Wunderground v.1.15,2013-03-15 07:14:00,
2013-03-15 03:19:00,31.6,30.1,30.11,South,170,0.0,0.0,94,0.00,,,0.00,Wunderground v.1.15,2013-03-15 07:19:00,
2013-03-15 03:25:00,31.6,30.1,30.10,South,170,0.0,0.0,94,0.00,,,0.00,Wunderground v.1.15,2013-03-15 07:25:00,
2013-03-15 03:31:00,31.6,30.1,30.10,South,170,0.0,0.0,94,0.00,,,0.00,Wunderground v.1.15,2013-03-15 07:31:00,
2013-03-15 03:36:00,31.6,30.1,30.09,South,170,0.0,0.0,94,0.00,,,0.00,Wunderground v.1.15,2013-03-15 07:36:00,
2013-03-15 03:42:00,31.6,30.3,30.09,South,170,0.0,0.0,95,0.00,,,0.00,Wunderground v.1.15,2013-03-15 07:42:00,
2013-03-15 03:47:00,31.6,30.3,30.08,South,170,0.0,0.0,95,0.00,,,0.00,Wunderground v.1.15,2013-03-15 07:47:00,
2013-03-15 03:53:00,31.5,30.2,30.08,South,170,0.0,0.0,95,0.00,,,0.00,Wunderground v.1.15,2013-03-15 07:53:00,
2013-03-15 03:59:00,31.4,30.1,30.07,South,170,0.0,0.0,95,0.00,,,0.00,Wunderground v.1.15,2013-03-15 07:59:00,
2013-03-15 04:04:00,31.4,30.1,30.07,South,170,0.0,1.0,95,0.00,,,0.00,Wunderground v.1.15,2013-03-15 08:04:00,
2013-03-15 04:10:00,31.4,30.1,30.06,South,170,0.0,0.0,95,0.00,,,0.00,Wunderground v.1.15,2013-03-15 08:10:00,
2013-03-15 04:16:00,31.4,30.1,30.05,South,170,0.0,2.0,95,0.00,,,0.00,Wunderground v.1.15,2013-03-15 08:16:00,
2013-03-15 04:21:00,31.4,30.1,30.05,South,170,0.0,0.0,95,0.00,,,0.00,Wunderground v.1.15,2013-03-15 08:21:00,
2013-03-15 04:26:00,31.5,30.2,30.04,South,182,0.0,2.0,95,0.00,,,0.00,Wunderground v.1.15,2013-03-15 08:26:00,
2013-03-15 04:32:00,31.5,30.2,30.04,SW,229,0.0,2.0,95,0.00,,,0.00,Wunderground v.1.15,2013-03-15 08:32:00,
2013-03-15 04:38:00,31.5,30.2,30.04,SW,228,0.0,2.0,95,0.00,,,0.00,Wunderground v.1.15,2013-03-15 08:38:00,
2013-03-15 04:43:00,31.5,30.2,30.04,SW,228,0.0,0.0,95,0.00,,,0.00,Wunderground v.1.15,2013-03-15 08:43:00,
2013-03-15 04:49:00,31.4,30.1,30.04,SW,228,0.0,0.0,95,0.00,,,0.00,Wunderground v.1.15,2013-03-15 08:49:00,
2013-03-15 04:55:00,31.3,30.0,30.04,SW,228,0.0,0.0,95,0.00,,,0.00,Wunderground v.1.15,2013-03-15 08:55:00,
2013-03-15 05:00:00,31.2,29.9,30.03,SW,228,0.0,0.0,95,0.00,,,0.00,Wunderground v.1.15,2013-03-15 09:00:00,
2013-03-15 05:05:00,31.1,29.8,30.03,SW,228,0.0,0.0,95,0.00,,,0.00,Wunderground v.1.15,2013-03-15 09:05:00,
2013-03-15 05:11:00,31.1,29.8,30.04,SW,228,0.0,0.0,95,0.00,,,0.00,Wunderground v.1.15,2013-03-15 09:11:00,
2013-03-15 05:16:00,31.0,29.7,30.04,SW,228,0.0,0.0,95,0.00,,,0.00,Wunderground v.1.15,2013-03-15 09:16:00,
2013-03-15 05:21:00,31.0,29.7,30.04,SW,228,0.0,0.0,95,0.00,,,0.00,Wunderground v.1.15,2013-03-15 09:21:00,
2013-03-15 05:27:00,31.0,29.7,30.04,SW,228,0.0,0.0,95,0.00,,,0.00,Wunderground v.1.15,2013-03-15 09:27:00,
2013-03-15 05:33:00,31.1,29.8,30.04,SW,228,0.0,0.0,95,0.00,,,0.00,Wunderground v.1.15,2013-03-15 09:33:00,
2013-03-15 05:39:00,31.2,29.9,30.04,SW,228,0.0,0.0,95,0.00,,,0.00,Wunderground v.1.15,2013-03-15 09:39:00,
2013-03-15 05:45:00,31.2,29.9,30.03,SW,228,0.0,0.0,95,0.00,,,0.00,Wunderground v.1.15,2013-03-15 09:45:00,
2013-03-15 05:50:00,31.3,30.0,30.03,SW,228,0.0,0.0,95,0.00,,,0.00,Wunderground v.1.15,2013-03-15 09:50:00,
2013-03-15 05:56:00,31.3,29.8,30.04,SW,228,0.0,0.0,94,0.00,,,0.00,Wunderground v.1.15,2013-03-15 09:56:00,
2013-03-15 06:01:00,31.3,29.8,30.04,SW,228,0.0,0.0,94,0.00,,,0.00,Wunderground v.1.15,2013-03-15 10:01:00,
2013-03-15 06:07:00,31.4,29.9,30.04,SW,228,0.0,0.0,94,0.00,,,0.00,Wunderground v.1.15,2013-03-15 10:07:00,
2013-03-15 06:12:00,31.3,29.8,30.04,SW,228,0.0,0.0,94,0.00,,,0.00,Wunderground v.1.15,2013-03-15 10:12:00,
2013-03-15 06:18:00,31.3,29.8,30.04,SW,228,0.0,0.0,94,0.00,,,0.00,Wunderground v.1.15,2013-03-15 10:18:00,
2013-03-15 06:24:00,31.2,29.7,30.03,SW,228,0.0,0.0,94,0.00,,,0.00,Wunderground v.1.15,2013-03-15 10:24:00,
2013-03-15 06:30:00,31.2,29.7,30.04,SW,228,0.0,0.0,94,0.00,,,0.00,Wunderground v.1.15,2013-03-15 10:30:00,
2013-03-15 06:36:00,31.1,29.6,30.03,SW,228,0.0,0.0,94,0.00,,,0.00,Wunderground v.1.15,2013-03-15 10:36:00,
2013-03-15 06:42:00,31.0,29.5,30.03,SW,228,0.0,0.0,94,0.00,,,0.00,Wunderground v.1.15,2013-03-15 10:42:00,
2013-03-15 06:47:00,30.8,29.3,30.04,SW,228,0.0,0.0,94,0.00,,,0.00,Wunderground v.1.15,2013-03-15 10:47:00,
2013-03-15 06:53:00,30.2,28.7,30.03,SW,228,0.0,0.0,94,0.00,,,0.00,Wunderground v.1.15,2013-03-15 10:53:00,
2013-03-15 06:59:00,29.8,28.3,30.03,SW,228,0.0,0.0,94,0.00,,,0.00,Wunderground v.1.15,2013-03-15 10:59:00,
2013-03-15 07:04:00,29.9,28.6,30.03,SW,228,0.0,0.0,95,0.00,,,0.00,Wunderground v.1.15,2013-03-15 11:04:00,
2013-03-15 07:09:00,30.0,28.7,30.03,SW,228,0.0,0.0,95,0.00,,,0.00,Wunderground v.1.15,2013-03-15 11:09:00,
2013-03-15 07:14:00,30.0,28.7,30.03,SW,228,0.0,0.0,95,0.00,,,0.00,Wunderground v.1.15,2013-03-15 11:14:00,
2013-03-15 07:20:00,30.1,29.1,30.03,SW,228,0.0,0.0,96,0.00,,,0.00,Wunderground v.1.15,2013-03-15 11:20:00,
2013-03-15 07:26:00,30.0,29.0,30.02,SW,228,0.0,0.0,96,0.00,,,0.00,Wunderground v.1.15,2013-03-15 11:26:00,
2013-03-15 07:31:00,30.0,29.0,30.02,SW,228,0.0,0.0,96,0.00,,,0.00,Wunderground v.1.15,2013-03-15 11:31:00,
2013-03-15 07:36:00,30.0,29.0,30.02,SW,228,0.0,0.0,96,0.00,,,0.00,Wunderground v.1.15,2013-03-15 11:36:00,
2013-03-15 07:42:00,30.3,29.3,30.02,SW,228,0.0,0.0,96,0.00,,,0.00,Wunderground v.1.15,2013-03-15 11:42:00,
2013-03-15 07:47:00,30.5,29.5,30.01,SW,228,0.0,0.0,96,0.00,,,0.00,Wunderground v.1.15,2013-03-15 11:47:00,
2013-03-15 07:53:00,30.6,29.6,30.01,SW,228,0.0,0.0,96,0.00,,,0.00,Wunderground v.1.15,2013-03-15 11:53:00,
2013-03-15 07:59:00,30.6,29.6,30.01,SW,228,0.0,0.0,96,0.00,,,0.00,Wunderground v.1.15,2013-03-15 11:59:00,
2013-03-15 08:05:00,30.8,29.8,30.01,SW,228,0.0,0.0,96,0.00,,,0.00,Wunderground v.1.15,2013-03-15 12:05:00,
2013-03-15 08:11:00,30.8,29.8,30.00,SW,228,0.0,0.0,96,0.00,,,0.00,Wunderground v.1.15,2013-03-15 12:11:00,
2013-03-15 08:17:00,31.0,29.7,30.00,SW,228,0.0,0.0,95,0.00,,,0.00,Wunderground v.1.15,2013-03-15 12:17:00,
2013-03-15 08:22:00,31.1,29.8,30.00,SW,228,0.0,0.0,95,0.00,,,0.00,Wunderground v.1.15,2013-03-15 12:22:00,
2013-03-15 08:28:00,31.1,29.8,30.00,SW,228,0.0,0.0,95,0.00,,,0.00,Wunderground v.1.15,2013-03-15 12:28:00,
2013-03-15 08:34:00,31.2,29.9,30.00,SW,228,0.0,0.0,95,0.00,,,0.00,Wunderground v.1.15,2013-03-15 12:34:00,
2013-03-15 08:40:00,31.2,29.7,30.00,SW,228,0.0,0.0,94,0.00,,,0.00,Wunderground v.1.15,2013-03-15 12:40:00,
2013-03-15 08:46:00,31.2,29.7,29.99,SW,228,0.0,0.0,94,0.00,,,0.00,Wunderground v.1.15,2013-03-15 12:46:00,
2013-03-15 08:52:00,31.2,29.7,29.99,SW,228,0.0,1.0,94,0.00,,,0.00,Wunderground v.1.15,2013-03-15 12:52:00,
2013-03-15 08:57:00,31.3,29.8,29.99,SW,228,0.0,1.0,94,0.00,,,0.00,Wunderground v.1.15,2013-03-15 12:57:00,
2013-03-15 09:03:00,31.4,29.9,29.99,SW,228,0.0,0.0,94,0.00,,,0.00,Wunderground v.1.15,2013-03-15 13:03:00,
2013-03-15 09:08:00,31.4,29.9,30.00,SW,228,0.0,0.0,94,0.00,,,0.00,Wunderground v.1.15,2013-03-15 13:08:00,
2013-03-15 09:13:00,31.5,30.0,29.99,SW,228,0.0,1.0,94,0.00,,,0.00,Wunderground v.1.15,2013-03-15 13:13:00,
2013-03-15 09:19:00,31.6,30.1,29.99,SW,228,0.0,1.0,94,0.00,,,0.00,Wunderground v.1.15,2013-03-15 13:19:00,
2013-03-15 09:25:00,31.8,30.3,30.00,SW,228,0.0,1.0,94,0.00,,,0.00,Wunderground v.1.15,2013-03-15 13:25:00,
2013-03-15 09:30:00,32.1,30.6,30.00,SW,228,0.0,0.0,94,0.00,,,0.00,Wunderground v.1.15,2013-03-15 13:30:00,
2013-03-15 09:36:00,32.5,31.0,29.99,SW,228,0.0,0.0,94,0.00,,,0.00,Wunderground v.1.15,2013-03-15 13:36:00,
2013-03-15 09:41:00,32.8,31.3,29.99,SW,228,0.0,0.0,94,0.00,,,0.00,Wunderground v.1.15,2013-03-15 13:41:00,
2013-03-15 09:47:00,33.2,31.7,29.99,SW,228,0.0,0.0,94,0.00,,,0.00,Wunderground v.1.15,2013-03-15 13:47:00,
2013-03-15 09:52:00,33.5,31.7,29.99,SW,228,0.0,1.0,93,0.00,,,0.00,Wunderground v.1.15,2013-03-15 13:52:00,
2013-03-15 09:58:00,33.7,31.6,29.98,SW,227,0.0,2.0,92,0.00,,,0.00,Wunderground v.1.15,2013-03-15 13:58:00,
2013-03-15 10:03:00,33.9,32.1,29.98,SE,146,0.0,0.0,93,0.00,,,0.00,Wunderground v.1.15,2013-03-15 14:03:00,
2013-03-15 10:09:00,34.3,32.2,29.98,SE,131,0.0,3.0,92,0.00,,,0.00,Wunderground v.1.15,2013-03-15 14:09:00,
2013-03-15 10:14:00,34.5,32.1,29.98,SE,138,0.0,2.0,91,0.00,,,0.00,Wunderground v.1.15,2013-03-15 14:14:00,
2013-03-15 10:19:00,34.7,32.3,29.98,SW,232,0.0,2.0,91,0.00,,,0.00,Wunderground v.1.15,2013-03-15 14:19:00,
2013-03-15 10:25:00,34.9,32.3,29.98,SW,232,0.0,1.0,90,0.00,,,0.00,Wunderground v.1.15,2013-03-15 14:25:00,
2013-03-15 10:30:00,35.3,32.9,29.98,South,182,0.0,2.0,91,0.00,,,0.00,Wunderground v.1.15,2013-03-15 14:30:00,
2013-03-15 10:35:00,35.6,33.0,29.98,South,182,0.0,2.0,90,0.00,,,0.00,Wunderground v.1.15,2013-03-15 14:35:00,
2013-03-15 10:41:00,36.0,33.4,29.98,South,178,0.0,0.0,90,0.00,,,0.00,Wunderground v.1.15,2013-03-15 14:41:00,
2013-03-15 10:46:00,36.3,33.4,29.98,South,178,0.0,1.0,89,0.00,,,0.00,Wunderground v.1.15,2013-03-15 14:46:00,
2013-03-15 10:52:00,36.7,33.2,29.98,South,171,0.0,0.0,87,0.00,,,0.00,Wunderground v.1.15,2013-03-15 14:52:00,
2013-03-15 10:58:00,37.3,33.5,29.98,South,182,1.0,4.0,86,0.00,,,0.00,Wunderground v.1.15,2013-03-15 14:58:00,
2013-03-15 11:03:00,37.6,33.5,29.97,South,184,2.0,2.0,85,0.00,,,0.00,Wunderground v.1.15,2013-03-15 15:03:00,
2013-03-15 11:09:00,38.1,33.7,29.97,South,178,2.0,4.0,84,0.00,,,0.00,Wunderground v.1.15,2013-03-15 15:09:00,
2013-03-15 11:14:00,39.1,35.0,29.97,SW,236,1.0,3.0,85,0.00,,,0.00,Wunderground v.1.15,2013-03-15 15:14:00,
2013-03-15 11:19:00,39.5,34.5,29.97,South,179,1.0,3.0,82,0.00,,,0.00,Wunderground v.1.15,2013-03-15 15:19:00,
2013-03-15 11:25:00,39.5,34.2,29.97,South,185,1.0,3.0,81,0.00,,,0.00,Wunderground v.1.15,2013-03-15 15:25:00,
2013-03-15 11:30:00,39.9,34.5,29.97,NW,309,1.0,1.0,81,0.00,,,0.00,Wunderground v.1.15,2013-03-15 15:30:00,
2013-03-15 11:35:00,40.3,34.6,29.97,South,175,1.0,1.0,80,0.00,,,0.00,Wunderground v.1.15,2013-03-15 15:35:00,
2013-03-15 11:41:00,40.9,35.2,29.97,SSW,212,0.0,0.0,80,0.00,,,0.00,Wunderground v.1.15,2013-03-15 15:41:00,
2013-03-15 11:47:00,41.5,35.5,29.97,SSE,167,0.0,3.0,79,0.00,,,0.00,Wunderground v.1.15,2013-03-15 15:47:00,
2013-03-15 11:52:00,42.0,35.3,29.97,West,260,1.0,3.0,77,0.00,,,0.00,Wunderground v.1.15,2013-03-15 15:52:00,
2013-03-15 11:57:00,42.7,35.7,29.97,SW,228,1.0,3.0,76,0.00,,,0.00,Wunderground v.1.15,2013-03-15 15:57:00,
2013-03-15 12:03:00,43.4,36.0,29.97,South,188,0.0,3.0,75,0.00,,,0.00,Wunderground v.1.15,2013-03-15 16:03:00,
2013-03-15 12:08:00,44.0,36.2,29.97,SSW,194,1.0,3.0,74,0.00,,,0.00,Wunderground v.1.15,2013-03-15 16:08:00,
2013-03-15 12:13:00,44.5,36.4,29.97,South,189,0.0,1.0,73,0.00,,,0.00,Wunderground v.1.15,2013-03-15 16:13:00,
2013-03-15 12:18:00,44.6,35.8,29.96,South,189,0.0,1.0,71,0.00,,,0.00,Wunderground v.1.15,2013-03-15 16:18:00,
2013-03-15 12:24:00,45.1,36.3,29.96,South,189,0.0,1.0,71,0.00,,,0.00,Wunderground v.1.15,2013-03-15 16:24:00,
2013-03-15 12:30:00,45.6,36.4,29.96,South,189,0.0,0.0,70,0.00,,,0.00,Wunderground v.1.15,2013-03-15 16:30:00,
2013-03-15 12:36:00,45.5,35.5,29.96,South,189,0.0,0.0,68,0.00,,,0.00,Wunderground v.1.15,2013-03-15 16:36:00,
2013-03-15 12:41:00,45.8,35.8,29.96,South,189,0.0,1.0,68,0.00,,,0.00,Wunderground v.1.15,2013-03-15 16:41:00,
2013-03-15 12:47:00,46.2,35.8,29.96,South,188,0.0,1.0,67,0.00,,,0.00,Wunderground v.1.15,2013-03-15 16:47:00,
2013-03-15 12:53:00,46.9,35.7,29.96,South,188,0.0,1.0,65,0.00,,,0.00,Wunderground v.1.15,2013-03-15 16:53:00,
2013-03-15 12:59:00,46.5,35.4,29.96,SSW,198,0.0,1.0,65,0.00,,,0.00,Wunderground v.1.15,2013-03-15 16:59:00,
2013-03-15 13:04:00,46.9,35.7,29.96,SSW,198,0.0,2.0,65,0.00,,,0.00,Wunderground v.1.15,2013-03-15 17:04:00,
2013-03-15 13:09:00,47.3,35.3,29.95,SSW,200,0.0,2.0,63,0.00,,,0.00,Wunderground v.1.15,2013-03-15 17:09:00,
2013-03-15 13:14:00,47.3,35.3,29.95,South,188,0.0,3.0,63,0.00,,,0.00,Wunderground v.1.15,2013-03-15 17:14:00,
2013-03-15 13:20:00,47.5,35.5,29.95,South,188,1.0,1.0,63,0.00,,,0.00,Wunderground v.1.15,2013-03-15 17:20:00,
2013-03-15 13:26:00,47.6,35.6,29.95,South,188,0.0,1.0,63,0.00,,,0.00,Wunderground v.1.15,2013-03-15 17:26:00,
2013-03-15 13:31:00,47.4,35.0,29.94,South,178,1.0,2.0,62,0.00,,,0.00,Wunderground v.1.15,2013-03-15 17:31:00,
2013-03-15 13:36:00,47.6,35.6,29.94,South,175,1.0,3.0,63,0.00,,,0.00,Wunderground v.1.15,2013-03-15 17:36:00,
2013-03-15 13:41:00,47.9,35.5,29.95,South,188,1.0,1.0,62,0.00,,,0.00,Wunderground v.1.15,2013-03-15 17:41:00,
2013-03-15 13:47:00,47.9,35.5,29.95,South,184,1.0,3.0,62,0.00,,,0.00,Wunderground v.1.15,2013-03-15 17:47:00,
2013-03-15 13:53:00,48.0,35.6,29.94,South,184,1.0,1.0,62,0.00,,,0.00,Wunderground v.1.15,2013-03-15 17:53:00,
2013-03-15 13:58:00,48.2,35.8,29.94,South,184,0.0,1.0,62,0.00,,,0.00,Wunderground v.1.15,2013-03-15 17:58:00,
2013-03-15 14:04:00,48.3,35.9,29.94,SSW,205,0.0,2.0,62,0.00,,,0.00,Wunderground v.1.15,2013-03-15 18:04:00,
2013-03-15 14:10:00,49.0,36.5,29.93,SW,218,0.0,2.0,62,0.00,,,0.00,Wunderground v.1.15,2013-03-15 18:10:00,
2013-03-15 14:15:00,49.4,36.5,29.93,SSW,192,1.0,4.0,61,0.00,,,0.00,Wunderground v.1.15,2013-03-15 18:15:00,
2013-03-15 14:21:00,49.6,36.7,29.93,South,169,2.0,2.0,61,0.00,,,0.00,Wunderground v.1.15,2013-03-15 18:21:00,
2013-03-15 14:27:00,50.0,36.2,29.93,South,175,0.0,2.0,59,0.00,,,0.00,Wunderground v.1.15,2013-03-15 18:27:00,
2013-03-15 14:32:00,49.8,36.5,29.93,South,176,0.0,1.0,60,0.00,,,0.00,Wunderground v.1.15,2013-03-15 18:32:00,
2013-03-15 14:38:00,50.0,36.7,29.92,SSW,198,0.0,2.0,60,0.00,,,0.00,Wunderground v.1.15,2013-03-15 18:38:00,
2013-03-15 14:44:00,50.3,36.9,29.92,SSW,198,0.0,0.0,60,0.00,,,0.00,Wunderground v.1.15,2013-03-15 18:44:00,
2013-03-15 14:50:00,50.3,36.5,29.92,SSE,163,0.0,0.0,59,0.00,,,0.00,Wunderground v.1.15,2013-03-15 18:50:00,
2013-03-15 14:56:00,50.4,36.2,29.92,SSE,163,0.0,0.0,58,0.00,,,0.00,Wunderground v.1.15,2013-03-15 18:56:00,
2013-03-15 15:02:00,50.5,36.3,29.91,South,181,1.0,2.0,58,0.00,,,0.00,Wunderground v.1.15,2013-03-15 19:02:00,
2013-03-15 15:07:00,50.6,36.4,29.91,South,177,1.0,4.0,58,0.00,,,0.00,Wunderground v.1.15,2013-03-15 19:07:00,
2013-03-15 15:13:00,51.0,37.2,29.91,South,175,1.0,1.0,59,0.00,,,0.00,Wunderground v.1.15,2013-03-15 19:13:00,
2013-03-15 15:18:00,51.5,37.2,29.91,ESE,111,1.0,1.0,58,0.00,,,0.00,Wunderground v.1.15,2013-03-15 19:18:00,
2013-03-15 15:24:00,51.7,37.4,29.90,SSW,194,0.0,1.0,58,0.00,,,0.00,Wunderground v.1.15,2013-03-15 19:24:00,
2013-03-15 15:29:00,51.6,37.7,29.90,South,184,0.0,2.0,59,0.00,,,0.00,Wunderground v.1.15,2013-03-15 19:29:00,
2013-03-15 15:35:00,51.9,37.1,29.90,South,184,0.0,1.0,57,0.00,,,0.00,Wunderground v.1.15,2013-03-15 19:35:00,
2013-03-15 15:40:00,52.1,37.8,29.89,SSW,194,0.0,0.0,58,0.00,,,0.00,Wunderground v.1.15,2013-03-15 19:40:00,
2013-03-15 15:46:00,52.8,38.4,29.89,SSE,163,1.0,4.0,58,0.00,,,0.00,Wunderground v.1.15,2013-03-15 19:46:00,
2013-03-15 15:52:00,53.0,38.2,29.89,SSE,168,1.0,1.0,57,0.00,,,0.00,Wunderground v.1.15,2013-03-15 19:52:00,
2013-03-15 15:58:00,53.2,37.9,29.89,West,269,0.0,1.0,56,0.00,,,0.00,Wunderground v.1.15,2013-03-15 19:58:00,
2013-03-15 16:03:00,53.3,38.0,29.88,South,178,0.0,2.0,56,0.00,,,0.00,Wunderground v.1.15,2013-03-15 20:03:00,
2013-03-15 16:09:00,53.4,38.1,29.88,West,269,0.0,2.0,56,0.00,,,0.00,Wunderground v.1.15,2013-03-15 20:09:00,
2013-03-15 16:14:00,53.7,38.8,29.88,SSW,196,1.0,1.0,57,0.00,,,0.00,Wunderground v.1.15,2013-03-15 20:14:00,
2013-03-15 16:20:00,54.0,38.6,29.87,South,173,1.0,1.0,56,0.00,,,0.00,Wunderground v.1.15,2013-03-15 20:20:00,
2013-03-15 16:25:00,54.3,38.9,29.87,South,173,0.0,1.0,56,0.00,,,0.00,Wunderground v.1.15,2013-03-15 20:25:00,
2013-03-15 16:31:00,54.3,38.5,29.87,South,173,0.0,0.0,55,0.00,,,0.00,Wunderground v.1.15,2013-03-15 20:31:00,
2013-03-15 16:37:00,54.7,38.4,29.87,South,177,0.0,2.0,54,0.00,,,0.00,Wunderground v.1.15,2013-03-15 20:37:00,
2013-03-15 16:43:00,54.8,38.9,29.87,South,188,1.0,1.0,55,0.00,,,0.00,Wunderground v.1.15,2013-03-15 20:43:00,
2013-03-15 16:48:00,55.0,39.1,29.87,South,178,1.0,1.0,55,0.00,,,0.00,Wunderground v.1.15,2013-03-15 20:48:00,
2013-03-15 16:54:00,54.9,38.6,29.87,South,178,0.0,2.0,54,0.00,,,0.00,Wunderground v.1.15,2013-03-15 20:54:00,
2013-03-15 17:00:00,55.2,38.8,29.86,NE,42,0.0,0.0,54,0.00,,,0.00,Wunderground v.1.15,2013-03-15 21:00:00,
2013-03-15 17:05:00,55.2,38.8,29.86,South,173,0.0,1.0,54,0.00,,,0.00,Wunderground v.1.15,2013-03-15 21:05:00,
2013-03-15 17:11:00,54.9,38.6,29.86,South,173,0.0,0.0,54,0.00,,,0.00,Wunderground v.1.15,2013-03-15 21:11:00,
2013-03-15 17:17:00,54.7,38.4,29.86,South,173,0.0,0.0,54,0.00,,,0.00,Wunderground v.1.15,2013-03-15 21:17:00,
2013-03-15 17:22:00,54.5,38.7,29.86,South,173,0.0,0.0,55,0.00,,,0.00,Wunderground v.1.15,2013-03-15 21:22:00,
2013-03-15 17:28:00,54.4,39.0,29.85,South,173,0.0,0.0,56,0.00,,,0.00,Wunderground v.1.15,2013-03-15 21:28:00,
2013-03-15 17:33:00,54.3,38.9,29.86,South,173,0.0,0.0,56,0.00,,,0.00,Wunderground v.1.15,2013-03-15 21:33:00,
2013-03-15 17:38:00,54.4,39.5,29.86,South,173,0.0,1.0,57,0.00,,,0.00,Wunderground v.1.15,2013-03-15 21:38:00,
2013-03-15 17:44:00,54.6,39.7,29.87,South,173,0.0,0.0,57,0.00,,,0.00,Wunderground v.1.15,2013-03-15 21:44:00,
2013-03-15 17:50:00,54.8,39.4,29.87,South,173,0.0,0.0,56,0.00,,,0.00,Wunderground v.1.15,2013-03-15 21:50:00,
2013-03-15 17:56:00,54.9,39.5,29.87,South,173,0.0,0.0,56,0.00,,,0.00,Wunderground v.1.15,2013-03-15 21:56:00,
2013-03-15 18:02:00,54.8,39.4,29.86,South,173,0.0,0.0,56,0.00,,,0.00,Wunderground v.1.15,2013-03-15 22:02:00,
2013-03-15 18:07:00,54.6,39.2,29.85,South,173,0.0,1.0,56,0.00,,,0.00,Wunderground v.1.15,2013-03-15 22:07:00,
2013-03-15 18:12:00,54.6,39.7,29.85,South,173,0.0,3.0,57,0.00,,,0.00,Wunderground v.1.15,2013-03-15 22:12:00,
2013-03-15 18:18:00,54.3,39.8,29.85,South,173,0.0,3.0,58,0.00,,,0.00,Wunderground v.1.15,2013-03-15 22:18:00,
2013-03-15 18:23:00,54.2,39.7,29.84,South,173,0.0,0.0,58,0.00,,,0.00,Wunderground v.1.15,2013-03-15 22:23:00,
2013-03-15 18:29:00,54.1,39.6,29.84,South,173,0.0,2.0,58,0.00,,,0.00,Wunderground v.1.15,2013-03-15 22:29:00,
2013-03-15 18:35:00,54.0,40.0,29.84,South,173,0.0,0.0,59,0.00,,,0.00,Wunderground v.1.15,2013-03-15 22:35:00,
2013-03-15 18:40:00,53.9,39.9,29.84,SSW,211,0.0,0.0,59,0.00,,,0.00,Wunderground v.1.15,2013-03-15 22:40:00,
2013-03-15 18:46:00,53.8,39.8,29.84,SSW,211,0.0,1.0,59,0.00,,,0.00,Wunderground v.1.15,2013-03-15 22:46:00,
2013-03-15 18:52:00,53.8,40.2,29.85,SSW,211,0.0,0.0,60,0.00,,,0.00,Wunderground v.1.15,2013-03-15 22:52:00,
2013-03-15 18:57:00,53.8,40.2,29.85,SSW,211,0.0,0.0,60,0.00,,,0.00,Wunderground v.1.15,2013-03-15 22:57:00,
2013-03-15 19:02:00,53.8,40.2,29.84,SSW,211,0.0,0.0,60,0.00,,,0.00,Wunderground v.1.15,2013-03-15 23:02:00,
2013-03-15 19:08:00,53.8,40.2,29.84,SSW,211,0.0,0.0,60,0.00,,,0.00,Wunderground v.1.15,2013-03-15 23:08:00,
2013-03-15 19:14:00,53.8,40.2,29.83,SSW,211,0.0,1.0,60,0.00,,,0.00,Wunderground v.1.15,2013-03-15 23:14:00,
2013-03-15 19:19:00,53.7,40.1,29.83,SSW,211,0.0,1.0,60,0.00,,,0.00,Wunderground v.1.15,2013-03-15 23:19:00,
2013-03-15 19:25:00,53.6,40.0,29.83,SSW,211,0.0,0.0,60,0.00,,,0.00,Wunderground v.1.15,2013-03-15 23:25:00,
2013-03-15 19:30:00,53.5,39.9,29.83,SSW,211,0.0,0.0,60,0.00,,,0.00,Wunderground v.1.15,2013-03-15 23:30:00,
2013-03-15 19:36:00,53.3,40.2,29.83,SSW,211,0.0,0.0,61,0.00,,,0.00,Wunderground v.1.15,2013-03-15 23:36:00,
2013-03-15 19:42:00,53.2,40.1,29.82,SSW,211,0.0,0.0,61,0.00,,,0.00,Wunderground v.1.15,2013-03-15 23:42:00,
2013-03-15 19:48:00,53.1,40.0,29.82,SSW,211,0.0,0.0,61,0.00,,,0.00,Wunderground v.1.15,2013-03-15 23:48:00,
2013-03-15 19:53:00,53.0,39.9,29.82,SSW,211,0.0,0.0,61,0.00,,,0.00,Wunderground v.1.15,2013-03-15 23:53:00,
2013-03-15 19:59:00,52.8,40.1,29.82,SSW,211,0.0,0.0,62,0.00,,,0.00,Wunderground v.1.15,2013-03-15 23:59:00,
2013-03-15 20:05:00,52.8,40.1,29.83,SSW,211,0.0,0.0,62,0.00,,,0.00,Wunderground v.1.15,2013-03-16 00:05:00,
2013-03-15 20:11:00,52.4,39.8,29.83,SSW,211,0.0,0.0,62,0.00,,,0.00,Wunderground v.1.15,2013-03-16 00:11:00,
2013-03-15 20:16:00,52.3,40.1,29.83,SSW,211,0.0,0.0,63,0.00,,,0.00,Wunderground v.1.15,2013-03-16 00:16:00,
2013-03-15 20:22:00,52.2,40.4,29.82,SSW,211,0.0,0.0,64,0.00,,,0.00,Wunderground v.1.15,2013-03-16 00:22:00,
2013-03-15 20:27:00,52.2,40.4,29.83,SSW,211,0.0,0.0,64,0.00,,,0.00,Wunderground v.1.15,2013-03-16 00:27:00,
2013-03-15 20:33:00,52.2,40.4,29.83,SSW,211,0.0,0.0,64,0.00,,,0.00,Wunderground v.1.15,2013-03-16 00:33:00,
2013-03-15 20:38:00,52.2,40.4,29.83,SSW,211,0.0,0.0,64,0.00,,,0.00,Wunderground v.1.15,2013-03-16 00:38:00,
2013-03-15 20:44:00,52.2,40.4,29.81,SSW,211,0.0,1.0,64,0.00,,,0.00,Wunderground v.1.15,2013-03-16 00:44:00,
2013-03-15 20:50:00,52.1,40.3,29.80,South,182,0.0,1.0,64,0.00,,,0.00,Wunderground v.1.15,2013-03-16 00:50:00,
2013-03-15 20:55:00,52.1,40.3,29.80,East,80,0.0,1.0,64,0.00,,,0.00,Wunderground v.1.15,2013-03-16 00:55:00,
2013-03-15 21:01:00,52.0,40.2,29.80,South,184,0.0,0.0,64,0.00,,,0.00,Wunderground v.1.15,2013-03-16 01:01:00,
2013-03-15 21:07:00,51.8,40.0,29.81,South,173,0.0,3.0,64,0.00,,,0.00,Wunderground v.1.15,2013-03-16 01:07:00,
2013-03-15 21:13:00,51.7,40.3,29.80,South,173,0.0,1.0,65,0.00,,,0.00,Wunderground v.1.15,2013-03-16 01:13:00,
2013-03-15 21:19:00,51.5,40.1,29.79,South,180,0.0,1.0,65,0.00,,,0.00,Wunderground v.1.15,2013-03-16 01:19:00,
2013-03-15 21:24:00,51.3,39.9,29.78,South,180,0.0,2.0,65,0.00,,,0.00,Wunderground v.1.15,2013-03-16 01:24:00,
2013-03-15 21:29:00,51.3,39.9,29.79,SSE,167,1.0,2.0,65,0.00,,,0.00,Wunderground v.1.15,2013-03-16 01:29:00,
2013-03-15 21:34:00,51.3,40.3,29.77,SSE,167,0.0,1.0,66,0.00,,,0.00,Wunderground v.1.15,2013-03-16 01:34:00,
2013-03-15 21:40:00,51.4,40.4,29.78,SSE,167,0.0,0.0,66,0.00,,,0.00,Wunderground v.1.15,2013-03-16 01:40:00,
2013-03-15 21:47:00,51.4,40.4,29.78,SSE,167,0.0,1.0,66,0.00,,,0.00,Wunderground v.1.15,2013-03-16 01:47:00,
2013-03-15 21:53:00,51.3,40.3,29.76,ESE,119,0.0,1.0,66,0.00,,,0.00,Wunderground v.1.15,2013-03-16 01:53:00,
2013-03-15 21:59:00,51.6,40.2,29.75,ESE,109,1.0,3.0,65,0.00,,,0.00,Wunderground v.1.15,2013-03-16 01:59:00,
2013-03-15 22:04:00,52.0,40.6,29.74,East,88,2.0,3.0,65,0.00,,,0.00,Wunderground v.1.15,2013-03-16 02:04:00,
2013-03-15 22:09:00,51.9,40.5,29.75,ESE,110,1.0,3.0,65,0.00,,,0.00,Wunderground v.1.15,2013-03-16 02:09:00,
2013-03-15 22:15:00,51.8,40.4,29.77,ESE,111,0.0,1.0,65,0.00,,,0.00,Wunderground v.1.15,2013-03-16 02:15:00,
2013-03-15 22:22:00,51.8,40.4,29.76,ESE,111,0.0,0.0,65,0.00,,,0.00,Wunderground v.1.15,2013-03-16 02:22:00,
2013-03-15 22:28:00,51.7,40.3,29.75,ESE,111,0.0,1.0,65,0.00,,,0.00,Wunderground v.1.15,2013-03-16 02:28:00,
2013-03-15 22:33:00,51.7,40.3,29.75,East,100,0.0,0.0,65,0.00,,,0.00,Wunderground v.1.15,2013-03-16 02:33:00,
2013-03-15 22:39:00,51.6,40.2,29.74,East,101,1.0,2.0,65,0.00,,,0.00,Wunderground v.1.15,2013-03-16 02:39:00,
2013-03-15 22:44:00,51.5,40.5,29.73,ESE,103,1.0,2.0,66,0.00,,,0.00,Wunderground v.1.15,2013-03-16 02:44:00,
2013-03-15 22:50:00,51.1,40.5,29.73,ESE,103,1.0,1.0,67,0.00,,,0.00,Wunderground v.1.15,2013-03-16 02:50:00,
2013-03-15 22:56:00,50.9,40.3,29.73,ESE,103,0.0,2.0,67,0.00,,,0.00,Wunderground v.1.15,2013-03-16 02:56:00,
2013-03-15 23:01:00,50.8,40.6,29.73,ESE,103,1.0,2.0,68,0.00,,,0.00,Wunderground v.1.15,2013-03-16 03:01:00,
2013-03-15 23:06:00,50.6,40.8,29.72,ESE,109,1.0,2.0,69,0.00,,,0.00,Wunderground v.1.15,2013-03-16 03:06:00,
2013-03-15 23:12:00,50.5,41.1,29.73,NNE,17,1.0,2.0,70,0.00,,,0.00,Wunderground v.1.15,2013-03-16 03:12:00,
2013-03-15 23:17:00,50.4,41.0,29.74,NNE,17,1.0,2.0,70,0.00,,,0.00,Wunderground v.1.15,2013-03-16 03:17:00,
2013-03-15 23:23:00,50.4,41.0,29.73,East,80,0.0,2.0,70,0.00,,,0.00,Wunderground v.1.15,2013-03-16 03:23:00,
2013-03-15 23:29:00,50.4,41.0,29.72,East,80,0.0,2.0,70,0.00,,,0.00,Wunderground v.1.15,2013-03-16 03:29:00,
2013-03-15 23:34:00,50.4,41.0,29.72,East,88,0.0,1.0,70,0.00,,,0.00,Wunderground v.1.15,2013-03-16 03:34:00,
2013-03-15 23:39:00,50.5,41.1,29.70,East,91,0.0,1.0,70,0.00,,,0.00,Wunderground v.1.15,2013-03-16 03:39:00,
2013-03-15 23:44:00,50.3,41.3,29.70,East,98,0.0,1.0,71,0.00,,,0.00,Wunderground v.1.15,2013-03-16 03:44:00,
2013-03-15 23:50:00,50.2,41.2,29.70,ESE,116,1.0,1.0,71,0.00,,,0.00,Wunderground v.1.15,2013-03-16 03:50:00,
2013-03-15 23:55:00,50.3,41.3,29.71,East,98,1.0,1.0,71,0.00,,,0.00,Wunderground v.1.15,2013-03-16 03:55:00,